createdAt,value
2022-11-29T00:00:50.052Z,32.55
2022-11-29T00:03:16.780Z,27.73
2022-11-29T00:05:43.289Z,29.52
2022-11-29T00:08:09.773Z,26.55
2022-11-29T00:10:37.616Z,30.10
2022-11-29T00:13:04.389Z,26.73
2022-11-29T00:15:30.863Z,29.13
2022-11-29T00:17:57.347Z,29.95
2022-11-29T00:20:23.828Z,29.83
2022-11-29T00:22:50.234Z,28.08
2022-11-29T00:25:16.674Z,28.52
2022-11-29T00:27:43.110Z,29.35
2022-11-29T00:30:09.854Z,30.20
2022-11-29T00:32:36.397Z,32.88
2022-11-29T00:35:09.346Z,31.10
2022-11-29T00:37:36.235Z,26.35
2022-11-29T00:40:04.565Z,29.77
2022-11-29T00:44:57.567Z,29.65
2022-11-29T00:47:24.073Z,29.63
2022-11-29T00:49:50.580Z,28.38
2022-11-29T00:52:17.086Z,28.58
2022-11-29T00:54:44.067Z,30.13
2022-11-29T00:57:10.749Z,28.52
2022-11-29T00:59:37.275Z,26.08
2022-11-29T01:02:03.854Z,28.35
2022-11-29T01:04:30.635Z,28.77
2022-11-29T01:06:57.089Z,28.13
2022-11-29T01:09:23.741Z,29.00
2022-11-29T01:11:50.570Z,28.05
2022-11-29T01:14:17.061Z,26.27
2022-11-29T01:16:43.550Z,25.85
2022-11-29T01:19:10.127Z,28.90
2022-11-29T01:21:37.708Z,27.00
2022-11-29T01:24:04.352Z,30.10
2022-11-29T01:26:31.805Z,26.02
2022-11-29T01:28:59.073Z,28.33
2022-11-29T01:31:36.336Z,28.20
2022-11-29T01:34:04.809Z,28.13
2022-11-29T01:36:31.851Z,23.98
2022-11-29T01:39:00.587Z,27.20
2022-11-29T01:41:29.809Z,30.00
2022-11-29T01:44:03.338Z,30.38
2022-11-29T01:46:33.081Z,26.63
2022-11-29T01:49:08.221Z,24.88
2022-11-29T01:51:37.433Z,28.10
2022-11-29T01:54:04.969Z,23.63
2022-11-29T01:56:34.571Z,25.95
2022-11-29T01:59:05.538Z,22.30
2022-11-29T02:01:32.411Z,23.88
2022-11-29T02:03:59.843Z,22.58
2022-11-29T02:06:28.240Z,21.20
2022-11-29T02:11:32.781Z,21.88
2022-11-29T02:14:28.801Z,23.70
2022-11-29T02:17:24.607Z,23.42
2022-11-29T02:20:18.884Z,20.15
2022-11-29T02:22:51.334Z,24.83
2022-11-29T02:25:40.093Z,31.40
2022-11-29T02:28:23.405Z,29.45
2022-11-29T02:31:39.105Z,29.98
2022-11-29T02:34:35.336Z,28.40
2022-11-29T02:37:22.613Z,24.25
2022-11-29T02:40:07.097Z,25.00
2022-11-29T02:43:10.552Z,20.60
2022-11-29T02:45:45.724Z,19.90
2022-11-29T02:48:33.538Z,18.42
2022-11-29T02:51:08.348Z,20.67
2022-11-29T02:54:07.472Z,20.40
2022-11-29T02:56:58.949Z,20.45
2022-11-29T03:00:02.685Z,16.55
2022-11-29T03:02:51.041Z,18.77
2022-11-29T03:05:50.955Z,22.67
2022-11-29T03:08:34.289Z,20.25
2022-11-29T03:11:18.944Z,20.83
2022-11-29T03:14:09.527Z,19.20
2022-11-29T03:16:54.235Z,19.92
2022-11-29T03:19:47.960Z,20.33
2022-11-29T03:22:39.414Z,17.27
2022-11-29T03:25:16.170Z,20.10
2022-11-29T03:27:58.037Z,18.45
2022-11-29T03:30:24.536Z,16.63
2022-11-29T03:33:03.562Z,19.23
2022-11-29T03:35:51.551Z,21.05
2022-11-29T03:38:29.805Z,21.08
2022-11-29T03:41:12.389Z,19.92
2022-11-29T03:43:56.747Z,21.38
2022-11-29T03:46:40.800Z,22.60
2022-11-29T03:49:17.730Z,21.58
2022-11-29T03:52:12.127Z,21.70
2022-11-29T03:55:18.972Z,20.75
2022-11-29T03:58:00.563Z,19.77
2022-11-29T04:00:45.470Z,21.27
2022-11-29T04:03:39.596Z,22.08
2022-11-29T04:06:30.657Z,20.23
2022-11-29T04:09:00.151Z,19.50
2022-11-29T04:11:55.146Z,18.33
2022-11-29T04:14:47.652Z,17.23
2022-11-29T04:17:35.965Z,16.05
2022-11-29T04:20:40.261Z,19.13
2022-11-29T04:23:46.662Z,16.75
2022-11-29T04:26:50.911Z,16.15
2022-11-29T04:29:45.480Z,13.80
2022-11-29T04:32:39.638Z,14.23
2022-11-29T04:35:34.236Z,19.30
2022-11-29T04:38:27.964Z,17.25
2022-11-29T04:41:31.778Z,14.73
2022-11-29T04:44:04.438Z,15.57
2022-11-29T04:46:50.848Z,16.08
2022-11-29T04:49:37.447Z,15.80
2022-11-29T04:52:06.926Z,14.00
2022-11-29T04:54:42.351Z,15.25
2022-11-29T04:57:22.577Z,15.80
2022-11-29T05:00:02.302Z,15.20
2022-11-29T05:02:34.994Z,14.32
2022-11-29T05:05:33.891Z,16.88
2022-11-29T05:08:45.123Z,15.05
2022-11-29T05:11:23.437Z,13.18
2022-11-29T05:14:17.807Z,12.13
2022-11-29T05:16:54.210Z,13.35
2022-11-29T05:19:33.488Z,12.48
2022-11-29T05:22:25.678Z,11.95
2022-11-29T05:25:31.330Z,12.20
2022-11-29T05:28:28.991Z,12.13
2022-11-29T05:31:33.188Z,10.05
2022-11-29T05:34:17.401Z,11.93
2022-11-29T05:37:09.225Z,12.77
2022-11-29T05:40:15.981Z,12.18
2022-11-29T05:42:59.189Z,11.65
2022-11-29T05:45:44.230Z,10.52
2022-11-29T05:48:22.409Z,11.10
2022-11-29T05:51:03.738Z,11.65
2022-11-29T05:53:42.801Z,13.10
2022-11-29T05:56:20.955Z,11.30
2022-11-29T05:58:56.338Z,11.32
2022-11-29T06:01:47.121Z,10.60
2022-11-29T06:04:38.538Z,10.75
2022-11-29T06:07:33.593Z,11.50
2022-11-29T06:10:04.439Z,11.75
2022-11-29T06:12:35.921Z,11.20
2022-11-29T06:15:40.884Z,10.05
2022-11-29T06:18:40.542Z,11.18
2022-11-29T06:21:28.681Z,8.07
2022-11-29T06:24:30.630Z,8.90
2022-11-29T06:27:29.405Z,10.48
2022-11-29T06:30:07.030Z,9.80
2022-11-29T06:32:50.553Z,8.05
2022-11-29T06:35:19.860Z,9.55
2022-11-29T06:37:50.401Z,9.80
2022-11-29T06:40:17.433Z,8.98
2022-11-29T06:42:44.159Z,10.00
2022-11-29T06:45:13.766Z,8.65
2022-11-29T06:47:40.129Z,9.23
2022-11-29T06:50:30.481Z,8.50
2022-11-29T06:53:26.737Z,9.43
2022-11-29T06:55:56.152Z,7.45
2022-11-29T06:58:42.673Z,10.45
2022-11-29T07:01:23.392Z,9.63
2022-11-29T07:04:01.552Z,9.93
2022-11-29T07:06:29.119Z,8.55
2022-11-29T07:09:04.372Z,7.30
2022-11-29T07:11:31.304Z,7.60
2022-11-29T07:13:57.958Z,7.35
2022-11-29T07:16:31.342Z,6.50
2022-11-29T07:19:00.735Z,6.22
2022-11-29T07:21:51.926Z,5.85
2022-11-29T07:24:48.905Z,8.13
2022-11-29T07:27:38.151Z,7.22
2022-11-29T07:30:14.100Z,7.70
2022-11-29T07:32:58.712Z,7.72
2022-11-29T07:35:38.561Z,10.10
2022-11-29T07:38:22.034Z,10.50
2022-11-29T07:41:11.982Z,10.43
2022-11-29T07:43:56.574Z,11.18
2022-11-29T07:46:23.279Z,12.40
2022-11-29T07:48:49.790Z,11.40
2022-11-29T07:51:16.358Z,11.90
2022-11-29T07:53:44.548Z,10.73
2022-11-29T07:56:12.425Z,9.98
2022-11-29T07:58:39.087Z,12.40
2022-11-29T08:01:05.802Z,9.75
2022-11-29T08:03:33.810Z,10.40
2022-11-29T08:06:00.231Z,7.88
2022-11-29T08:08:26.660Z,8.27
2022-11-29T08:10:53.150Z,7.68
2022-11-29T08:13:21.089Z,7.32
2022-11-29T08:15:48.622Z,7.88
2022-11-29T08:18:15.695Z,8.55
2022-11-29T08:20:42.713Z,8.95
2022-11-29T08:23:12.064Z,9.38
2022-11-29T08:25:38.689Z,10.05
2022-11-29T08:28:06.060Z,8.20
2022-11-29T08:30:32.817Z,9.88
2022-11-29T08:32:59.294Z,8.27
2022-11-29T08:35:25.935Z,6.93
2022-11-29T08:37:54.469Z,8.27
2022-11-29T08:40:21.090Z,7.60
2022-11-29T08:42:47.584Z,7.40
2022-11-29T08:45:14.051Z,8.02
2022-11-29T08:47:42.213Z,9.05
2022-11-29T08:50:14.578Z,9.05
2022-11-29T08:53:04.766Z,7.95
2022-11-29T08:55:36.889Z,8.57
2022-11-29T08:58:06.854Z,5.15
2022-11-29T09:00:34.456Z,7.00
2022-11-29T09:03:24.228Z,6.95
2022-11-29T09:05:51.172Z,5.72
2022-11-29T09:08:17.778Z,6.25
2022-11-29T09:10:44.530Z,6.90
2022-11-29T09:13:12.180Z,5.85
2022-11-29T09:15:40.209Z,7.47
2022-11-29T09:18:06.686Z,6.38
2022-11-29T09:20:34.023Z,7.13
2022-11-29T09:23:01.434Z,7.43
2022-11-29T09:25:28.703Z,9.70
2022-11-29T09:27:58.279Z,8.43
2022-11-29T09:30:24.780Z,10.57
2022-11-29T09:32:51.399Z,8.32
2022-11-29T09:35:17.970Z,9.23
2022-11-29T09:37:44.654Z,9.73
2022-11-29T09:40:25.522Z,10.38
2022-11-29T09:42:57.693Z,7.95
2022-11-29T09:45:36.477Z,8.25
2022-11-29T09:48:08.875Z,8.25
2022-11-29T09:50:47.865Z,7.55
2022-11-29T09:53:33.043Z,7.35
2022-11-29T09:56:16.735Z,7.97
2022-11-29T09:58:57.251Z,6.82
2022-11-29T10:01:29.745Z,6.15
2022-11-29T10:04:08.900Z,7.18
2022-11-29T10:06:40.968Z,9.07
2022-11-29T10:09:16.740Z,6.88
2022-11-29T10:12:04.473Z,8.98
2022-11-29T10:14:39.012Z,8.43
2022-11-29T10:19:56.518Z,8.15
2022-11-29T10:22:57.022Z,7.60
2022-11-29T10:25:33.647Z,8.02
2022-11-29T10:28:00.456Z,7.15
2022-11-29T10:30:28.145Z,8.25
2022-11-29T10:33:00.454Z,7.20
2022-11-29T10:35:27.009Z,7.45
2022-11-29T10:38:29.303Z,7.28
2022-11-29T10:40:48.407Z,8.02
2022-11-29T10:43:15.013Z,8.05
2022-11-29T10:45:50.536Z,9.75
2022-11-29T10:48:19.883Z,7.70
2022-11-29T10:50:49.160Z,8.07
2022-11-29T10:53:35.630Z,7.60
2022-11-29T10:56:27.100Z,8.85
2022-11-29T10:59:04.407Z,9.05
2022-11-29T11:01:38.253Z,9.23
2022-11-29T11:04:09.872Z,7.97
2022-11-29T11:06:51.363Z,10.90
2022-11-29T11:09:27.408Z,9.90
2022-11-29T11:11:57.463Z,9.90
2022-11-29T11:14:29.384Z,10.00
2022-11-29T11:16:56.033Z,9.70
2022-11-29T11:19:31.511Z,10.45
2022-11-29T11:22:00.932Z,10.63
2022-11-29T11:24:33.935Z,10.40
2022-11-29T11:27:01.035Z,10.25
2022-11-29T11:29:41.168Z,10.93
2022-11-29T11:32:16.994Z,9.90
2022-11-29T11:34:55.454Z,11.52
2022-11-29T11:37:25.109Z,11.15
2022-11-29T11:39:59.917Z,10.80
2022-11-29T11:42:45.262Z,11.98
2022-11-29T11:45:11.724Z,14.00
2022-11-29T11:47:46.578Z,12.82
2022-11-29T11:50:25.134Z,13.68
2022-11-29T11:52:55.320Z,12.90
2022-11-29T11:55:26.607Z,13.75
2022-11-29T11:58:09.728Z,13.05
2022-11-29T12:01:06.601Z,11.80
2022-11-29T12:03:37.137Z,11.77
2022-11-29T12:06:32.585Z,14.23
2022-11-29T12:09:28.562Z,13.95
2022-11-29T12:12:15.844Z,12.30
2022-11-29T12:15:16.206Z,12.45
2022-11-29T12:18:01.757Z,11.57
2022-11-29T12:20:39.654Z,13.32
2022-11-29T12:23:23.342Z,12.10
2022-11-29T12:26:04.361Z,12.23
2022-11-29T12:28:38.241Z,13.52
2022-11-29T12:31:26.668Z,12.55
2022-11-29T12:34:23.308Z,11.45
2022-11-29T12:37:08.137Z,13.50
2022-11-29T12:39:42.528Z,12.10
2022-11-29T12:42:16.377Z,13.45
2022-11-29T12:45:04.354Z,13.77
2022-11-29T12:47:52.630Z,12.90
2022-11-29T12:50:25.143Z,13.85
2022-11-29T12:53:00.644Z,13.90
2022-11-29T12:55:48.914Z,12.73
2022-11-29T12:58:45.662Z,14.07
2022-11-29T13:01:34.295Z,12.75
2022-11-29T13:04:37.376Z,14.25
2022-11-29T13:07:22.810Z,12.60
2022-11-29T13:10:17.625Z,15.10
2022-11-29T13:12:55.481Z,12.82
2022-11-29T13:15:27.330Z,13.95
2022-11-29T13:18:00.842Z,13.98
2022-11-29T13:20:57.209Z,13.98
2022-11-29T13:24:07.433Z,12.98
2022-11-29T13:26:27.007Z,14.15
2022-11-29T13:28:54.515Z,13.43
2022-11-29T13:31:23.711Z,12.80
2022-11-29T13:34:24.340Z,12.90
2022-11-29T13:37:12.452Z,13.70
2022-11-29T13:40:17.352Z,13.93
2022-11-29T13:42:55.538Z,12.93
2022-11-29T13:45:29.122Z,12.63
2022-11-29T13:47:59.599Z,13.65
2022-11-29T13:50:52.364Z,13.13
2022-11-29T13:53:24.818Z,12.55
2022-11-29T13:56:02.986Z,15.27
2022-11-29T13:58:30.526Z,13.90
2022-11-29T14:01:06.554Z,16.15
2022-11-29T14:03:42.378Z,15.43
2022-11-29T14:06:21.019Z,14.35
2022-11-29T14:09:18.737Z,15.40
2022-11-29T14:12:05.731Z,14.05
2022-11-29T14:14:39.590Z,12.20
2022-11-29T14:17:26.763Z,10.43
2022-11-29T14:20:25.228Z,10.73
2022-11-29T14:23:32.375Z,8.07
2022-11-29T14:25:58.829Z,8.48
2022-11-29T14:28:37.201Z,8.07
2022-11-29T14:31:05.844Z,8.52
2022-11-29T14:33:51.540Z,8.93
2022-11-29T14:36:29.668Z,8.13
2022-11-29T14:39:04.931Z,7.28
2022-11-29T14:42:10.523Z,7.45
2022-11-29T14:44:49.136Z,6.78
2022-11-29T14:47:26.301Z,7.22
2022-11-29T14:49:55.467Z,7.45
2022-11-29T14:52:32.850Z,6.43
2022-11-29T14:55:14.319Z,7.03
2022-11-29T14:57:46.892Z,7.13
2022-11-29T15:00:21.044Z,6.20
2022-11-29T15:02:52.342Z,6.45
2022-11-29T15:05:21.897Z,5.50
2022-11-29T15:08:00.091Z,6.82
2022-11-29T15:10:32.694Z,5.88
2022-11-29T15:13:04.086Z,5.38
2022-11-29T15:16:09.321Z,5.70
2022-11-29T15:18:49.847Z,6.53
2022-11-29T15:21:54.122Z,6.55
2022-11-29T15:24:26.804Z,5.47
2022-11-29T15:27:00.606Z,5.03
2022-11-29T15:29:29.889Z,4.80
2022-11-29T15:32:03.650Z,4.38
2022-11-29T15:34:48.012Z,4.78
2022-11-29T15:37:47.384Z,4.25
2022-11-29T15:40:23.175Z,3.72
2022-11-29T15:43:11.793Z,4.68
2022-11-29T15:45:39.342Z,4.28
2022-11-29T15:48:20.914Z,3.45
2022-11-29T15:51:29.285Z,2.45
2022-11-29T15:54:19.235Z,2.60
2022-11-29T15:57:06.870Z,2.28
2022-11-29T15:59:47.966Z,2.80
2022-11-29T16:02:31.553Z,2.33
2022-11-29T16:05:01.422Z,2.67
2022-11-29T16:07:32.385Z,2.70
2022-11-29T16:10:04.429Z,3.25
2022-11-29T16:12:31.873Z,2.92
2022-11-29T16:15:00.845Z,3.10
2022-11-29T16:17:33.700Z,2.60
2022-11-29T16:20:16.648Z,2.95
2022-11-29T16:22:43.267Z,3.20
2022-11-29T16:25:19.777Z,2.88
2022-11-29T16:27:47.534Z,2.97
2022-11-29T16:30:23.002Z,3.42
2022-11-29T16:33:01.605Z,3.47
2022-11-29T16:35:30.159Z,4.22
2022-11-29T16:37:56.925Z,4.38
2022-11-29T16:40:25.632Z,6.03
2022-11-29T16:43:04.064Z,6.65
2022-11-29T16:45:42.764Z,6.88
2022-11-29T16:48:27.617Z,6.00
2022-11-29T16:51:32.269Z,7.28
2022-11-29T16:54:18.643Z,6.10
2022-11-29T16:56:45.327Z,5.82
2022-11-29T16:59:24.534Z,6.32
2022-11-29T17:01:54.895Z,6.15
2022-11-29T17:04:24.515Z,4.38
2022-11-29T17:06:53.122Z,5.53
2022-11-29T17:09:24.531Z,5.97
2022-11-29T17:11:51.350Z,5.35
2022-11-29T17:14:17.901Z,5.25
2022-11-29T17:16:44.557Z,5.32
2022-11-29T17:19:15.863Z,5.55
2022-11-29T17:21:42.819Z,4.75
2022-11-29T17:24:15.701Z,4.22
2022-11-29T17:26:43.373Z,6.32
2022-11-29T17:29:11.595Z,19.15
2022-11-29T17:31:38.499Z,16.38
2022-11-29T17:34:05.774Z,30.25
2022-11-29T17:36:32.341Z,9.98
2022-11-29T17:38:59.787Z,7.95
2022-11-29T17:41:27.469Z,4.88
2022-11-29T17:43:55.424Z,8.35
2022-11-29T17:46:23.229Z,5.75
2022-11-29T17:48:53.702Z,9.23
2022-11-29T17:51:50.680Z,6.88
2022-11-29T17:54:09.260Z,4.95
2022-11-29T17:56:35.811Z,4.20
2022-11-29T17:59:03.568Z,4.78
2022-11-29T18:01:33.292Z,5.70
2022-11-29T18:04:02.286Z,5.40
2022-11-29T18:06:33.501Z,4.80
2022-11-29T18:09:02.055Z,3.90
2022-11-29T18:11:48.181Z,5.32
2022-11-29T18:14:27.979Z,4.45
2022-11-29T18:16:54.453Z,5.47
2022-11-29T18:19:22.523Z,4.65
2022-11-29T18:21:49.770Z,5.45
2022-11-29T18:24:16.545Z,4.85
2022-11-29T18:26:43.285Z,4.38
2022-11-29T18:29:09.904Z,4.65
2022-11-29T18:31:39.269Z,5.93
2022-11-29T18:34:11.180Z,4.57
2022-11-29T18:36:42.808Z,3.97
2022-11-29T18:39:13.972Z,5.13
2022-11-29T18:41:45.608Z,4.38
2022-11-29T18:44:14.371Z,4.80
2022-11-29T18:46:43.445Z,5.32
2022-11-29T18:49:12.814Z,4.82
2022-11-29T18:51:41.073Z,4.55
2022-11-29T18:54:07.737Z,5.80
2022-11-29T18:56:35.587Z,4.95
2022-11-29T18:59:06.254Z,6.35
2022-11-29T19:01:35.481Z,5.63
2022-11-29T19:04:02.173Z,5.03
2022-11-29T19:06:39.233Z,5.90
2022-11-29T19:09:11.371Z,5.53
2022-11-29T19:11:38.377Z,5.80
2022-11-29T19:14:10.986Z,5.22
2022-11-29T19:16:40.216Z,4.40
2022-11-29T19:19:06.847Z,5.00
2022-11-29T19:21:39.155Z,4.28
2022-11-29T19:24:15.657Z,5.03
2022-11-29T19:26:45.162Z,4.30
2022-11-29T19:29:13.023Z,4.47
2022-11-29T19:31:39.741Z,4.13
2022-11-29T19:34:06.568Z,4.28
2022-11-29T19:36:33.134Z,3.72
2022-11-29T19:39:01.924Z,4.30
2022-11-29T19:41:32.565Z,3.30
2022-11-29T19:44:01.580Z,4.30
2022-11-29T19:46:31.704Z,4.35
2022-11-29T19:49:01.241Z,3.45
2022-11-29T19:51:29.177Z,3.45
2022-11-29T19:54:00.016Z,3.55
2022-11-29T19:56:31.615Z,4.38
2022-11-29T19:59:04.935Z,4.95
2022-11-29T20:01:40.162Z,3.13
2022-11-29T20:04:18.208Z,3.40
2022-11-29T20:07:05.024Z,2.75
2022-11-29T20:09:52.221Z,3.72
2022-11-29T20:12:23.313Z,3.97
2022-11-29T20:15:00.937Z,3.13
2022-11-29T20:20:17.954Z,4.88
2022-11-29T20:23:00.712Z,3.67
2022-11-29T20:25:31.763Z,3.72
2022-11-29T20:30:45.492Z,3.17
2022-11-29T20:33:32.050Z,3.42
2022-11-29T20:36:27.025Z,3.70
2022-11-29T20:39:16.662Z,3.67
2022-11-29T20:48:03.678Z,4.15
2022-11-29T20:50:42.201Z,4.47
2022-11-29T20:53:26.892Z,4.22
2022-11-29T20:55:57.509Z,5.35
2022-11-29T21:00:56.099Z,4.97
2022-11-29T21:03:38.511Z,5.15
2022-11-29T21:06:11.097Z,6.40
2022-11-29T21:08:38.121Z,6.75
2022-11-29T21:11:11.444Z,6.88
2022-11-29T21:13:41.656Z,7.25
2022-11-29T21:16:11.492Z,6.55
2022-11-29T21:18:38.622Z,7.32
2022-11-29T21:21:20.122Z,7.22
2022-11-29T21:23:55.371Z,6.75
2022-11-29T21:26:31.752Z,7.43
2022-11-29T21:29:01.382Z,8.02
2022-11-29T21:31:28.123Z,8.20
2022-11-29T21:33:55.037Z,7.47
2022-11-29T21:36:21.687Z,7.93
2022-11-29T21:38:53.887Z,7.85
2022-11-29T21:41:21.546Z,7.90
2022-11-29T21:44:05.962Z,7.63
2022-11-29T21:46:33.779Z,7.78
2022-11-29T21:49:00.266Z,7.55
2022-11-29T21:51:26.692Z,8.40
2022-11-29T21:53:53.151Z,10.13
2022-11-29T21:56:19.641Z,8.63
2022-11-29T21:58:46.203Z,8.68
2022-11-29T22:01:16.080Z,9.20
2022-11-29T22:03:43.687Z,7.55
2022-11-29T22:06:13.041Z,8.57
2022-11-29T22:08:41.380Z,8.60
2022-11-29T22:13:37.059Z,8.18
2022-11-29T22:16:07.971Z,8.48
2022-11-29T22:18:35.231Z,9.23
2022-11-29T22:21:04.037Z,8.95
2022-11-29T22:23:30.987Z,7.80
2022-11-29T22:26:05.294Z,8.18
2022-11-29T22:28:32.068Z,8.48
2022-11-29T22:31:10.578Z,9.13
2022-11-29T22:33:38.079Z,8.25
2022-11-29T22:36:04.666Z,9.07
2022-11-29T22:38:31.577Z,9.57
2022-11-29T22:41:12.665Z,9.57
2022-11-29T22:43:40.804Z,8.85
2022-11-29T22:46:16.497Z,8.13
2022-11-29T22:48:44.577Z,9.25
2022-11-29T22:51:16.776Z,9.15
2022-11-29T22:53:48.799Z,8.90
2022-11-29T22:56:15.546Z,8.63
2022-11-29T22:58:42.262Z,9.40
2022-11-29T23:01:17.613Z,9.43
2022-11-29T23:03:51.693Z,8.95
2022-11-29T23:06:21.104Z,9.60
2022-11-29T23:08:49.453Z,9.20
2022-11-29T23:13:44.350Z,8.82
2022-11-29T23:16:20.638Z,8.90
2022-11-29T23:18:47.686Z,9.25
2022-11-29T23:21:17.228Z,10.20
2022-11-29T23:23:44.426Z,9.88
2022-11-29T23:26:26.469Z,8.52
2022-11-29T23:28:54.313Z,8.45
2022-11-29T23:31:22.058Z,10.13
2022-11-29T23:33:49.374Z,9.15
2022-11-29T23:36:16.757Z,9.85
2022-11-29T23:38:44.102Z,10.02
2022-11-29T23:41:14.385Z,8.80
2022-11-29T23:43:41.859Z,10.48
2022-11-29T23:46:14.385Z,10.48
2022-11-29T23:48:41.727Z,9.35
2022-11-29T23:51:08.170Z,9.65
2022-11-29T23:53:34.697Z,10.40
2022-11-29T23:56:04.031Z,9.13
2022-11-29T23:58:31.463Z,9.70
